Time;durP1;ratioP1;P1;durP2;ratioP2;P2;SDS_P1;SDS_P2;PMS_P1;PMS_P2;Temp;Humidity;BMP_temperature;BMP_pressure;BME280_temperature;BME280_humidity;BME280_pressure;Samples;Min_cycle;Max_cycle;Signal;HPM_P1;HPM_P2
2023/09/25 00:01:49;;;;;;;1.13;0.80;;;;;;;9.90;91.36;99267.94;4156665;28;20205;-48
2023/09/25 00:03:51;;;;;;;4.70;0.90;;;;;;;9.98;91.38;99277.69;4156223;28;20215;-49
2023/09/25 00:05:56;;;;;;;0.90;0.90;;;;;;;9.89;90.90;99273.63;4156484;28;20227;-46
2023/09/25 00:07:58;;;;;;;1.00;0.80;;;;;;;9.87;91.32;99262.91;4156502;28;20271;-47
2023/09/25 00:10:00;;;;;;;1.70;1.60;;;;;;;9.88;91.30;99266.47;4172334;28;20219;-49
2023/09/25 00:12:01;;;;;;;0.85;0.85;;;;;;;9.84;91.09;99265.25;4155556;28;20266;-48
2023/09/25 00:14:03;;;;;;;1.35;1.20;;;;;;;9.78;91.18;99266.16;4171399;28;20721;-46
2023/09/25 00:16:06;;;;;;;1.40;1.30;;;;;;;9.71;90.84;99270.84;4152349;28;20765;-49
2023/09/25 00:18:09;;;;;;;1.27;1.17;;;;;;;9.66;90.77;99263.34;4171597;28;20258;-51
2023/09/25 00:20:11;;;;;;;0.98;0.98;;;;;;;9.63;90.99;99260.22;4156000;28;20212;-48
2023/09/25 00:22:12;;;;;;;1.02;1.02;;;;;;;9.60;90.61;99271.59;4156083;28;20208;-46
2023/09/25 00:24:14;;;;;;;1.10;1.02;;;;;;;9.57;90.97;99269.31;4156616;28;20204;-48
2023/09/25 00:26:16;;;;;;;1.90;1.15;;;;;;;9.57;91.32;99269.31;4156651;28;20225;-47
2023/09/25 00:28:18;;;;;;;1.02;0.93;;;;;;;9.50;90.67;99279.47;4156603;28;20719;-47
2023/09/25 00:30:19;;;;;;;0.75;0.75;;;;;;;9.43;91.03;99271.31;4171636;28;20258;-47
2023/09/25 00:32:21;;;;;;;1.27;1.23;;;;;;;9.40;91.48;99279.13;4154217;28;20232;-49
2023/09/25 00:34:23;;;;;;;1.17;1.08;;;;;;;9.45;91.71;99273.84;4155400;28;20205;-47
2023/09/25 00:36:25;;;;;;;1.27;1.17;;;;;;;9.44;91.29;99274.91;4172173;28;20208;-46
2023/09/25 00:38:27;;;;;;;1.25;1.17;;;;;;;9.41;91.42;99278.09;4155385;28;20254;-46
2023/09/25 00:40:30;;;;;;;2.13;0.98;;;;;;;9.34;91.13;99274.59;4156389;28;20311;-49
2023/09/25 00:42:31;;;;;;;0.80;0.80;;;;;;;9.45;91.36;99279.31;4150536;28;20214;-47
2023/09/25 00:44:33;;;;;;;2.03;1.85;;;;;;;9.31;91.56;99269.56;4171473;28;20212;-47
2023/09/25 00:46:35;;;;;;;0.68;0.68;;;;;;;9.26;91.72;99272.13;4156342;28;20219;-47
2023/09/25 00:48:42;;;;;;;0.80;0.80;;;;;;;9.22;91.87;99270.91;4171306;28;20309;-49
2023/09/25 00:50:44;;;;;;;0.98;0.98;;;;;;;9.22;91.80;99265.44;4154330;28;20696;-51
2023/09/25 00:52:45;;;;;;;1.17;1.08;;;;;;;9.22;91.76;99266.28;4141367;28;21028;-48
2023/09/25 00:54:47;;;;;;;0.98;0.90;;;;;;;9.23;92.56;99264.38;4172322;28;20788;-46
2023/09/25 00:56:50;;;;;;;0.80;0.80;;;;;;;9.22;92.77;99265.44;4141160;28;20244;-47
2023/09/25 00:58:52;;;;;;;1.13;1.13;;;;;;;9.01;94.19;99274.03;4172810;28;20212;-50
2023/09/25 01:00:53;;;;;;;1.02;1.02;;;;;;;9.22;94.41;99268.19;4154037;28;20241;-49
2023/09/25 01:02:56;;;;;;;8.30;1.35;;;;;;;9.21;94.37;99264.59;4153703;28;20219;-48
2023/09/25 01:05:02;;;;;;;0.98;0.98;;;;;;;9.13;94.48;99280.41;4158402;28;20226;-46
2023/09/25 01:07:04;;;;;;;1.38;1.27;;;;;;;9.07;94.30;99273.97;4170598;28;20630;-46
2023/09/25 01:09:08;;;;;;;0.82;0.82;;;;;;;9.08;94.10;99275.63;4154324;28;20228;-50
2023/09/25 01:11:11;;;;;;;0.63;0.63;;;;;;;8.99;93.70;99270.66;4154832;28;20715;-48
2023/09/25 01:13:13;;;;;;;1.17;1.15;;;;;;;8.96;93.20;99271.94;4173247;28;20204;-47
2023/09/25 01:15:15;;;;;;;0.80;0.80;;;;;;;9.05;93.91;99275.25;4137807;28;20236;-47
2023/09/25 01:17:17;;;;;;;1.02;1.02;;;;;;;9.00;94.01;99277.78;4154655;28;20208;-47
2023/09/25 01:19:18;;;;;;;0.75;0.75;;;;;;;9.00;93.94;99266.88;4171238;28;20203;-47
2023/09/25 01:21:21;;;;;;;0.98;0.98;;;;;;;8.97;94.25;99270.06;4149618;28;20217;-48
2023/09/25 01:23:23;;;;;;;1.00;1.00;;;;;;;8.90;93.70;99261.09;4150359;28;20695;-47
2023/09/25 01:25:25;;;;;;;1.10;1.10;;;;;;;8.99;94.09;99265.19;4154328;28;20219;-47
2023/09/25 01:27:26;;;;;;;1.05;0.88;;;;;;;8.90;93.95;99267.34;4155907;28;20636;-47
2023/09/25 01:29:28;;;;;;;1.15;1.00;;;;;;;8.86;94.25;99265.31;4156830;28;20330;-49
2023/09/25 01:31:30;;;;;;;0.93;0.93;;;;;;;8.96;94.31;99255.56;4156278;28;20212;-48
2023/09/25 01:33:32;;;;;;;1.48;1.08;;;;;;;8.98;94.09;99252.63;4154999;28;20323;-47
2023/09/25 01:35:34;;;;;;;1.50;1.27;;;;;;;8.91;93.82;99243.66;4154665;28;20311;-47
2023/09/25 01:37:36;;;;;;;0.95;0.95;;;;;;;8.86;93.91;99246.19;4152991;28;20229;-46
2023/09/25 01:39:39;;;;;;;1.45;1.35;;;;;;;8.78;94.43;99247.31;4156980;28;20212;-48
2023/09/25 01:41:41;;;;;;;1.20;1.20;;;;;;;8.54;96.42;99237.19;4158983;28;20212;-50
2023/09/25 01:43:43;;;;;;;1.63;1.40;;;;;;;8.63;96.64;99235.03;4152627;28;20259;-46
2023/09/25 01:45:45;;;;;;;0.93;0.90;;;;;;;8.55;95.91;99236.13;4158633;28;20283;-46
2023/09/25 01:47:50;;;;;;;1.17;1.17;;;;;;;8.56;95.82;99237.78;4160516;28;20243;-48
2023/09/25 01:49:53;;;;;;;1.10;1.00;;;;;;;8.62;95.63;99239.66;4158362;28;20215;-48
2023/09/25 01:51:55;;;;;;;1.35;1.20;;;;;;;8.63;94.67;99240.50;4158438;28;21016;-47
2023/09/25 01:53:57;;;;;;;1.10;1.05;;;;;;;8.69;94.42;99236.88;4156279;28;20224;-46
2023/09/25 01:56:08;;;;;;;0.90;0.90;;;;;;;8.70;94.15;99235.81;4171309;28;20277;-48
2023/09/25 01:58:10;;;;;;;1.13;1.02;;;;;;;8.79;93.95;99242.69;4173205;28;20203;-49
2023/09/25 02:00:12;;;;;;;1.15;1.05;;;;;;;8.73;93.84;99243.56;4160939;28;20209;-48
2023/09/25 02:02:14;;;;;;;0.73;0.73;;;;;;;8.73;93.45;99243.56;4161673;28;20721;-49
2023/09/25 02:04:16;;;;;;;0.82;0.80;;;;;;;8.61;92.87;99235.25;4157142;28;20210;-47
2023/09/25 02:06:18;;;;;;;1.98;1.08;;;;;;;8.58;93.10;99243.03;4158334;28;20627;-49
2023/09/25 02:08:20;;;;;;;1.65;1.00;;;;;;;8.65;93.39;99232.91;4157357;28;20225;-47
2023/09/25 02:10:21;;;;;;;1.10;1.10;;;;;;;8.52;93.70;99235.72;4157473;28;20204;-48
2023/09/25 02:12:23;;;;;;;0.85;0.85;;;;;;;8.51;93.28;99234.06;4157850;28;20291;-46
2023/09/25 02:14:25;;;;;;;0.80;0.80;;;;;;;8.54;93.52;99229.00;4172700;28;20583;-47
2023/09/25 02:16:27;;;;;;;0.90;0.90;;;;;;;8.51;93.08;99231.34;4157443;28;20638;-48
2023/09/25 02:18:29;;;;;;;0.85;0.85;;;;;;;8.52;93.20;99230.28;4154018;28;20201;-47
2023/09/25 02:20:31;;;;;;;0.98;0.98;;;;;;;8.51;92.82;99228.59;4159075;28;20212;-46
2023/09/25 02:22:33;;;;;;;1.10;1.10;;;;;;;8.54;93.05;99222.72;4161029;28;20220;-47
2023/09/25 02:24:35;;;;;;;0.98;0.98;;;;;;;8.52;92.80;99230.28;4158047;28;20627;-51
2023/09/25 02:26:39;;;;;;;0.73;0.73;;;;;;;8.59;92.78;99221.00;4174173;28;21043;-46
2023/09/25 02:28:41;;;;;;;1.13;1.13;;;;;;;8.53;92.89;99216.44;4155944;28;20225;-47
2023/09/25 02:30:43;;;;;;;1.27;1.23;;;;;;;8.48;92.62;99218.16;4153054;28;20208;-49
2023/09/25 02:32:45;;;;;;;0.80;0.80;;;;;;;8.36;91.85;99218.00;4162386;28;20217;-46
2023/09/25 02:34:47;;;;;;;1.15;1.10;;;;;;;8.40;92.63;99226.56;4172963;28;20293;-47
2023/09/25 02:36:49;;;;;;;0.98;0.98;;;;;;;8.35;92.90;99212.78;4174049;28;20652;-48
2023/09/25 02:38:50;;;;;;;1.05;1.05;;;;;;;8.30;92.95;99212.59;4172505;28;20208;-48
2023/09/25 02:40:52;;;;;;;1.25;1.10;;;;;;;8.28;92.67;99211.97;4158122;28;20212;-48
2023/09/25 02:42:54;;;;;;;1.20;1.20;;;;;;;8.25;92.60;99215.13;4159192;28;20684;-49
2023/09/25 02:44:56;;;;;;;0.93;0.93;;;;;;;8.32;92.56;99213.19;4156696;28;20231;-50
2023/09/25 02:46:57;;;;;;;2.78;1.80;;;;;;;8.19;93.13;99218.69;4173258;28;20702;-47
2023/09/25 02:48:59;;;;;;;0.90;0.90;;;;;;;8.25;93.46;99207.78;4158706;28;20220;-47
2023/09/25 02:51:01;;;;;;;1.42;1.35;;;;;;;8.23;93.67;99214.53;4156543;28;20295;-47
2023/09/25 02:53:03;;;;;;;0.90;0.90;;;;;;;8.10;94.20;99214.56;4155792;28;20205;-46
2023/09/25 02:55:05;;;;;;;1.15;1.05;;;;;;;8.05;93.94;99217.09;4173757;28;20228;-46
2023/09/25 02:57:07;;;;;;;1.58;1.38;;;;;;;8.08;93.58;99222.13;4178105;28;20208;-47
2023/09/25 02:59:09;;;;;;;1.88;0.95;;;;;;;8.08;93.75;99216.66;4178404;28;20304;-47
2023/09/25 03:01:11;;;;;;;1.65;1.55;;;;;;;8.09;93.51;99218.34;4160887;28;20208;-48
2023/09/25 03:03:14;;;;;;;1.55;1.45;;;;;;;8.09;93.54;99221.88;4160718;28;20565;-47
2023/09/25 03:05:16;;;;;;;1.33;1.20;;;;;;;8.09;93.22;99218.34;4159000;28;20260;-50
2023/09/25 03:07:18;;;;;;;2.47;1.40;;;;;;;8.03;92.92;99219.19;4157691;28;20766;-49
2023/09/25 03:09:19;;;;;;;1.13;1.08;;;;;;;7.98;93.28;99211.69;4137339;28;20217;-51
2023/09/25 03:11:22;;;;;;;1.33;1.33;;;;;;;7.87;92.76;99208.78;4156857;28;20209;-48
2023/09/25 03:13:23;;;;;;;1.42;1.25;;;;;;;7.78;93.23;99213.66;4161907;28;20204;-50
2023/09/25 03:15:25;;;;;;;2.00;1.90;;;;;;;7.77;93.35;99209.25;4155803;28;20221;-50
2023/09/25 03:17:27;;;;;;;1.40;1.30;;;;;;;7.74;93.71;99206.94;4158460;28;20659;-47
2023/09/25 03:19:31;;;;;;;1.50;1.40;;;;;;;7.71;93.06;99212.84;4155622;28;20588;-48
2023/09/25 03:21:33;;;;;;;1.70;1.60;;;;;;;7.74;93.35;99214.28;4155129;28;20221;-49
2023/09/25 03:23:35;;;;;;;1.92;1.60;;;;;;;7.85;93.99;99225.34;4174211;28;20290;-48
2023/09/25 03:25:39;;;;;;;1.58;1.52;;;;;;;7.74;93.76;99217.00;4175654;28;20249;-46
2023/09/25 03:27:43;;;;;;;2.00;1.90;;;;;;;7.69;93.49;99217.66;4161174;28;20208;-46
2023/09/25 03:29:45;;;;;;;1.65;1.58;;;;;;;7.67;94.05;99218.91;4161798;28;20338;-48
2023/09/25 03:31:46;;;;;;;1.65;1.55;;;;;;;7.64;93.40;99214.75;4174842;28;20816;-47
2023/09/25 03:33:48;;;;;;;1.83;1.73;;;;;;;7.66;94.46;99211.78;4158063;28;20267;-49
2023/09/25 03:35:50;;;;;;;2.60;1.70;;;;;;;7.72;94.04;99216.38;4156745;28;20304;-49
2023/09/25 03:37:52;;;;;;;1.75;1.65;;;;;;;7.71;94.73;99210.13;4140777;28;20206;-46
2023/09/25 03:39:54;;;;;;;1.33;1.30;;;;;;;7.80;94.10;99207.97;4152033;28;20208;-48
2023/09/25 03:41:55;;;;;;;1.95;1.52;;;;;;;7.68;95.03;99199.63;4171865;28;20203;-46
2023/09/25 03:43:57;;;;;;;1.73;1.63;;;;;;;7.63;96.36;99206.78;4154967;28;20224;-45
2023/09/25 03:45:59;;;;;;;1.13;1.08;;;;;;;7.63;96.89;99201.34;4153345;28;20228;-50
2023/09/25 03:48:01;;;;;;;0.90;0.80;;;;;;;7.67;96.07;99208.00;4155846;28;20760;-46
2023/09/25 03:50:03;;;;;;;1.00;1.00;;;;;;;7.56;96.59;99214.13;4154069;28;20229;-48
2023/09/25 03:52:05;;;;;;;1.27;1.23;;;;;;;7.49;96.51;99207.88;4154978;28;20236;-49
2023/09/25 03:54:08;;;;;;;1.55;1.45;;;;;;;7.49;96.12;99214.13;4154233;28;20244;-48
2023/09/25 03:56:09;;;;;;;1.00;1.00;;;;;;;7.47;96.31;99218.13;4153743;28;20237;-48
2023/09/25 03:58:11;;;;;;;1.20;1.10;;;;;;;7.42;96.70;99216.03;4171986;28;20212;-48
2023/09/25 04:00:14;;;;;;;1.35;1.10;;;;;;;7.43;96.65;99222.34;4168749;28;20203;-51
2023/09/25 04:02:15;;;;;;;0.98;0.98;;;;;;;7.37;96.10;99223.19;4155138;28;20217;-46
2023/09/25 04:04:17;;;;;;;6.78;1.30;;;;;;;7.37;96.16;99217.75;4157941;28;20279;-46
2023/09/25 04:06:19;;;;;;;1.58;1.48;;;;;;;7.40;95.52;99228.19;4155744;28;20267;-47
2023/09/25 04:08:21;;;;;;;1.88;1.67;;;;;;;7.46;96.11;99227.34;4153298;28;20230;-47
2023/09/25 04:10:23;;;;;;;1.42;1.33;;;;;;;7.47;95.45;99226.28;4157005;28;20975;-49
2023/09/25 04:12:25;;;;;;;2.00;1.90;;;;;;;7.43;95.10;99227.78;4155439;28;20791;-48
2023/09/25 04:14:32;;;;;;;1.13;1.10;;;;;;;7.44;95.10;99232.19;4153487;28;20212;-46
2023/09/25 04:16:34;;;;;;;5.50;3.05;;;;;;;7.44;94.87;99226.72;4152293;28;20543;-48
2023/09/25 04:18:36;;;;;;;1.27;1.27;;;;;;;7.44;94.84;99221.28;4154082;28;20205;-48
2023/09/25 04:20:38;;;;;;;1.00;1.00;;;;;;;7.38;94.95;99224.84;4166862;28;20247;-47
2023/09/25 04:22:40;;;;;;;0.80;0.80;;;;;;;7.29;94.21;99226.13;4169955;28;20222;-50
2023/09/25 04:24:42;;;;;;;0.93;0.90;;;;;;;7.26;94.76;99238.28;4151508;28;20562;-49
2023/09/25 04:26:46;;;;;;;4.97;2.95;;;;;;;7.22;94.69;99231.56;4172292;28;20208;-46
2023/09/25 04:28:48;;;;;;;15.10;8.93;;;;;;;7.22;95.08;99234.28;4158396;28;20232;-47
2023/09/25 04:30:51;;;;;;;15.68;9.07;;;;;;;7.17;94.74;99236.00;4139958;28;20240;-49
2023/09/25 04:32:54;;;;;;;16.85;9.23;;;;;;;7.14;94.86;99230.94;4166365;28;20244;-46
2023/09/25 04:34:56;;;;;;;6.60;4.70;;;;;;;7.13;95.81;99237.44;4171525;28;20255;-47
2023/09/25 04:36:58;;;;;;;12.23;4.40;;;;;;;7.19;95.76;99242.06;4152982;28;20247;-49
2023/09/25 04:39:01;;;;;;;3.13;2.83;;;;;;;7.20;96.13;99243.72;4155611;28;20635;-48
2023/09/25 04:41:05;;;;;;;2.72;1.83;;;;;;;7.20;95.87;99241.00;4154660;28;20212;-46
2023/09/25 04:43:07;;;;;;;2.22;2.00;;;;;;;7.17;95.44;99233.28;4155817;28;20209;-49
2023/09/25 04:45:13;;;;;;;2.00;1.75;;;;;;;7.18;95.81;99234.94;4152154;28;20700;-49
2023/09/25 04:47:15;;;;;;;1.67;1.30;;;;;;;7.14;95.08;99239.97;4154869;28;20213;-50
2023/09/25 04:49:18;;;;;;;1.55;1.42;;;;;;;7.09;95.04;99236.22;4153825;28;20228;-51
2023/09/25 04:51:20;;;;;;;1.45;1.33;;;;;;;7.13;95.55;99234.72;4155996;28;20220;-51
2023/09/25 04:53:22;;;;;;;1.45;1.10;;;;;;;7.03;94.87;99237.88;4155423;28;20262;-47
2023/09/25 04:55:24;;;;;;;1.20;1.10;;;;;;;7.02;95.32;99240.81;4141302;28;20271;-47
2023/09/25 04:57:26;;;;;;;6.18;1.48;;;;;;;7.05;95.84;99240.38;4155835;28;20794;-48
2023/09/25 04:59:28;;;;;;;1.77;1.35;;;;;;;7.05;96.05;99240.38;4156339;28;20208;-49
2023/09/25 05:01:29;;;;;;;1.30;0.90;;;;;;;6.99;95.50;99246.66;4154375;28;20208;-48
2023/09/25 05:03:31;;;;;;;1.27;1.17;;;;;;;6.97;96.63;99249.59;4170846;28;20212;-47
2023/09/25 05:05:33;;;;;;;3.28;0.80;;;;;;;6.98;96.36;99251.28;4172916;28;20239;-50
2023/09/25 05:07:35;;;;;;;1.65;0.90;;;;;;;6.92;96.85;99256.72;4173974;28;20207;-48
2023/09/25 05:09:36;;;;;;;1.42;1.10;;;;;;;6.92;96.56;99245.81;4156436;28;20225;-49
2023/09/25 05:11:38;;;;;;;1.40;1.30;;;;;;;6.98;96.20;99245.84;4157391;28;20608;-48
2023/09/25 05:13:40;;;;;;;0.77;0.77;;;;;;;6.92;95.42;99249.41;4153048;28;20213;-50
2023/09/25 05:15:42;;;;;;;1.30;1.30;;;;;;;6.98;95.77;99245.00;4152577;28;20232;-48
2023/09/25 05:17:44;;;;;;;1.13;1.10;;;;;;;6.96;95.74;99247.09;4150228;28;20561;-48
2023/09/25 05:19:46;;;;;;;1.08;1.08;;;;;;;6.90;95.63;99248.75;4168958;28;20254;-46
2023/09/25 05:21:48;;;;;;;1.10;1.00;;;;;;;6.89;95.40;99246.25;4152585;28;20212;-50
2023/09/25 05:23:50;;;;;;;1.48;1.48;;;;;;;6.82;95.30;99254.41;4151906;28;20299;-48
2023/09/25 05:25:52;;;;;;;1.02;0.98;;;;;;;6.85;95.31;99254.00;4152001;28;20623;-50
2023/09/25 05:27:58;;;;;;;1.08;1.02;;;;;;;6.78;95.41;99249.59;4137340;28;20300;-46
2023/09/25 05:30:01;;;;;;;1.10;1.10;;;;;;;6.76;95.60;99251.69;4169905;28;20310;-51
2023/09/25 05:32:04;;;;;;;1.05;1.02;;;;;;;6.85;95.96;99251.28;4140187;28;20213;-50
2023/09/25 05:34:06;;;;;;;1.10;1.00;;;;;;;6.85;96.13;99255.88;4152438;28;20207;-49
2023/09/25 05:36:07;;;;;;;1.42;1.33;;;;;;;6.80;96.56;99258.38;4170262;28;20259;-50
2023/09/25 05:38:09;;;;;;;1.38;1.38;;;;;;;6.73;97.19;99255.66;4154920;28;20620;-48
2023/09/25 05:40:12;;;;;;;5.43;1.50;;;;;;;6.74;97.02;99254.59;4138854;28;20648;-48
2023/09/25 05:42:14;;;;;;;1.52;1.42;;;;;;;6.75;97.33;99250.03;4155045;28;20209;-50
2023/09/25 05:44:16;;;;;;;1.33;1.23;;;;;;;6.75;97.23;99255.47;4139057;28;20212;-47
2023/09/25 05:46:17;;;;;;;1.27;1.27;;;;;;;6.77;97.35;99253.38;4156004;28;20275;-47
2023/09/25 05:48:19;;;;;;;0.98;0.85;;;;;;;6.76;97.57;99257.13;4154558;28;21091;-47
2023/09/25 05:50:21;;;;;;;2.13;1.98;;;;;;;6.77;97.29;99258.81;4168556;28;20307;-51
2023/09/25 05:52:23;;;;;;;1.50;1.40;;;;;;;6.81;97.47;99260.88;4153866;28;20209;-48
2023/09/25 05:54:24;;;;;;;2.33;1.33;;;;;;;6.78;97.82;99255.88;4152693;28;20213;-47
2023/09/25 05:56:28;;;;;;;1.55;1.38;;;;;;;6.76;97.82;99254.41;4152988;28;20212;-47
2023/09/25 05:58:32;;;;;;;1.45;1.35;;;;;;;6.81;97.87;99260.88;4170265;28;20242;-48
2023/09/25 06:00:34;;;;;;;1.02;1.02;;;;;;;6.85;98.96;99261.31;4148223;28;22264;-47
2023/09/25 06:02:37;;;;;;;12.50;1.77;;;;;;;6.88;98.37;99261.72;4152519;28;20212;-48
2023/09/25 06:04:39;;;;;;;1.58;1.45;;;;;;;6.91;99.25;99263.19;4168136;28;20219;-48
2023/09/25 06:06:41;;;;;;;1.25;1.15;;;;;;;7.00;99.03;99265.50;4153487;28;20267;-49
2023/09/25 06:08:43;;;;;;;1.48;1.38;;;;;;;7.12;99.12;99265.72;4139540;28;20217;-49
2023/09/25 06:10:45;;;;;;;1.38;1.23;;;;;;;7.06;99.40;99263.81;4170394;28;20235;-48
2023/09/25 06:12:47;;;;;;;1.30;1.20;;;;;;;7.07;99.28;99263.63;4152288;28;20212;-48
2023/09/25 06:14:49;;;;;;;3.63;1.42;;;;;;;7.10;99.54;99265.09;4153286;28;20229;-50
2023/09/25 06:16:54;;;;;;;2.75;1.70;;;;;;;7.15;100.00;99268.84;4154201;28;20664;-47
2023/09/25 06:18:56;;;;;;;1.30;1.20;;;;;;;7.24;99.69;99269.47;4169848;28;20701;-49
2023/09/25 06:20:58;;;;;;;3.03;1.77;;;;;;;7.43;100.00;99271.34;4168791;28;20208;-49
2023/09/25 06:23:01;;;;;;;4.70;1.33;;;;;;;7.55;100.00;99275.94;4149965;28;20213;-48
2023/09/25 06:25:03;;;;;;;1.52;1.40;;;;;;;8.04;100.00;99276.22;4169479;28;20270;-47
2023/09/25 06:27:04;;;;;;;1.55;1.45;;;;;;;8.99;100.00;99271.50;4133383;28;20238;-48
2023/09/25 06:29:09;;;;;;;2.05;1.13;;;;;;;9.04;100.00;99281.75;4168824;28;20208;-48
2023/09/25 06:31:12;;;;;;;1.60;1.48;;;;;;;9.43;99.74;99281.44;4173221;28;20211;-46
2023/09/25 06:33:14;;;;;;;1.75;1.58;;;;;;;9.29;96.08;99282.63;4177824;28;20204;-47
2023/09/25 06:35:17;;;;;;;0.88;0.88;;;;;;;9.73;98.42;99274.19;4161407;28;20225;-47
2023/09/25 06:37:20;;;;;;;1.20;1.10;;;;;;;9.83;94.18;99277.25;4161905;28;20208;-47
2023/09/25 06:39:23;;;;;;;1.00;1.00;;;;;;;9.76;93.37;99280.03;4162378;28;20205;-47
2023/09/25 06:41:26;;;;;;;2.33;1.70;;;;;;;10.15;91.94;99284.28;4179000;28;20715;-50
2023/09/25 06:43:28;;;;;;;1.20;1.10;;;;;;;10.75;90.98;99280.53;4179123;28;20232;-48
2023/09/25 06:45:29;;;;;;;0.70;0.70;;;;;;;11.01;87.90;99270.84;4178600;28;20220;-49
2023/09/25 06:47:32;;;;;;;1.05;1.05;;;;;;;12.09;84.76;99278.44;4146329;28;20275;-47
2023/09/25 06:49:35;;;;;;;1.63;1.52;;;;;;;11.53;84.37;99275.47;4162687;28;20229;-47
2023/09/25 06:51:36;;;;;;;1.25;1.05;;;;;;;11.29;85.20;99268.28;4176635;28;20208;-47
2023/09/25 06:53:39;;;;;;;1.20;1.10;;;;;;;11.51;85.52;99274.84;4144690;28;20217;-47
2023/09/25 06:55:44;;;;;;;1.25;1.08;;;;;;;11.52;85.31;99278.44;4154021;28;20677;-47
2023/09/25 06:57:49;;;;;;;0.90;0.90;;;;;;;11.58;86.31;99272.84;4161465;28;20209;-50
2023/09/25 06:59:51;;;;;;;1.90;1.02;;;;;;;11.66;86.48;99274.41;4160013;28;20201;-49
2023/09/25 07:01:53;;;;;;;1.67;1.38;;;;;;;12.52;82.53;99281.56;4177553;28;20302;-46
2023/09/25 07:03:55;;;;;;;4.47;1.25;;;;;;;13.82;77.42;99278.41;4143003;28;20205;-48
2023/09/25 07:05:57;;;;;;;2.30;1.27;;;;;;;13.34;77.93;99280.94;4158553;28;20248;-47
2023/09/25 07:07:59;;;;;;;1.52;1.42;;;;;;;12.66;78.67;99288.44;4158983;28;20207;-45
2023/09/25 07:10:01;;;;;;;1.33;1.23;;;;;;;12.71;77.76;99284.97;4160499;28;20221;-47
2023/09/25 07:12:07;;;;;;;2.80;2.05;;;;;;;13.50;78.23;99285.59;4144427;28;20275;-48
2023/09/25 07:14:09;;;;;;;1.88;1.10;;;;;;;14.31;71.11;99288.50;4159292;28;20461;-46
2023/09/25 07:16:14;;;;;;;2.05;1.00;;;;;;;14.77;71.37;99287.97;4161950;28;21107;-49
2023/09/25 07:18:19;;;;;;;0.80;0.80;;;;;;;15.71;66.13;99287.28;4159971;28;20211;-46
2023/09/25 07:20:21;;;;;;;2.05;1.30;;;;;;;15.72;66.94;99286.22;4160150;28;20212;-48
2023/09/25 07:22:25;;;;;;;2.38;1.83;;;;;;;14.44;71.22;99295.56;4152615;28;20213;-46
2023/09/25 07:24:27;;;;;;;1.83;1.40;;;;;;;14.72;73.24;99296.22;4154754;28;20677;-51
2023/09/25 07:26:29;;;;;;;1.98;1.20;;;;;;;14.50;72.45;99292.63;4175761;28;20654;-49
2023/09/25 07:28:31;;;;;;;1.60;1.25;;;;;;;14.78;70.16;99284.16;4176043;28;20204;-49
2023/09/25 07:30:33;;;;;;;5.50;3.15;;;;;;;14.40;71.20;99287.00;4160742;28;20255;-50
2023/09/25 07:32:37;;;;;;;10.50;5.22;;;;;;;15.48;72.07;99284.88;4160724;28;20204;-47
2023/09/25 07:34:40;;;;;;;1.85;1.40;;;;;;;14.95;69.88;99282.13;4161099;28;20213;-49
2023/09/25 07:36:42;;;;;;;13.63;2.28;;;;;;;16.06;69.15;99287.56;4157073;28;20208;-48
2023/09/25 07:38:44;;;;;;;2.33;1.45;;;;;;;16.67;64.79;99283.19;4142742;28;20216;-50
2023/09/25 07:40:47;;;;;;;2.97;1.52;;;;;;;15.80;65.17;99273.81;4158755;28;20205;-49
2023/09/25 07:43:01;;;;;;;1.23;0.90;;;;;;;15.72;70.22;99286.22;4159934;28;20204;-48
2023/09/25 07:45:05;;;;;;;1.60;1.50;;;;;;;17.16;63.94;99282.50;4158922;28;20227;-46
2023/09/25 07:47:10;;;;;;;1.30;1.05;;;;;;;17.44;63.68;99284.81;4160628;28;20312;-50
2023/09/25 07:49:13;;;;;;;10.02;2.78;;;;;;;17.52;61.66;99281.50;4161330;28;21046;-47
2023/09/25 07:51:18;;;;;;;0.75;0.70;;;;;;;18.37;59.74;99284.16;4161807;28;20267;-48
2023/09/25 07:53:20;;;;;;;1.40;1.00;;;;;;;18.36;60.36;99285.28;4159817;28;20707;-47
2023/09/25 07:55:26;;;;;;;1.98;1.10;;;;;;;18.57;58.27;99286.91;4143869;28;20729;-46
2023/09/25 07:57:28;;;;;;;0.55;0.55;;;;;;;18.91;59.48;99294.22;4176355;28;20222;-46
2023/09/25 07:59:30;;;;;;;1.23;0.70;;;;;;;17.04;62.94;99295.75;4142974;28;20240;-46
2023/09/25 08:01:32;;;;;;;1.85;1.00;;;;;;;16.95;62.88;99300.16;4159968;28;20767;-47
2023/09/25 08:03:34;;;;;;;1.30;0.80;;;;;;;17.47;62.63;99300.84;4160752;28;20295;-46
2023/09/25 08:05:36;;;;;;;0.55;0.50;;;;;;;16.15;66.81;99291.47;4174835;28;20247;-48
2023/09/25 08:07:38;;;;;;;0.95;0.77;;;;;;;16.78;67.77;99295.94;4174469;28;20578;-48
2023/09/25 08:09:41;;;;;;;0.63;0.63;;;;;;;17.11;65.69;99290.81;4159498;28;20266;-47
2023/09/25 08:11:47;;;;;;;0.40;0.40;;;;;;;17.30;64.14;99303.00;4160935;28;20219;-47
2023/09/25 08:13:49;;;;;;;1.23;0.80;;;;;;;17.01;64.24;99299.06;4176968;28;20204;-49
2023/09/25 08:15:51;;;;;;;1.83;0.60;;;;;;;16.90;65.42;99294.59;4153119;28;20252;-49
2023/09/25 08:17:53;;;;;;;1.13;0.60;;;;;;;17.43;62.94;99289.50;4159862;28;20236;-48
2023/09/25 08:19:58;;;;;;;1.75;0.75;;;;;;;16.93;66.88;99291.31;4160120;28;20705;-45
2023/09/25 08:22:04;;;;;;;0.85;0.85;;;;;;;17.11;65.87;99301.88;4159273;28;20213;-46
2023/09/25 08:24:07;;;;;;;0.98;0.50;;;;;;;16.73;66.72;99296.78;4163589;28;20282;-46
2023/09/25 08:26:08;;;;;;;0.73;0.52;;;;;;;17.17;64.64;99296.06;4159757;28;20224;-47
2023/09/25 08:28:10;;;;;;;0.98;0.55;;;;;;;16.83;63.17;99293.22;4159901;28;20682;-47
2023/09/25 08:30:13;;;;;;;1.25;0.55;;;;;;;17.53;64.02;99288.69;4158344;28;20220;-48
2023/09/25 08:32:15;;;;;;;0.68;0.60;;;;;;;17.32;63.02;99298.03;4161408;28;20421;-46
2023/09/25 08:34:17;;;;;;;1.13;0.75;;;;;;;17.71;62.94;99302.00;4159890;28;20212;-46
2023/09/25 08:36:20;;;;;;;0.57;0.55;;;;;;;17.52;62.40;99298.09;4159300;28;20226;-47
2023/09/25 08:38:25;;;;;;;1.10;0.50;;;;;;;17.59;63.04;99298.66;4159513;28;20240;-47
2023/09/25 08:40:29;;;;;;;0.80;0.50;;;;;;;17.76;62.11;99299.19;4144041;28;20205;-47
2023/09/25 08:42:31;;;;;;;0.98;0.55;;;;;;;18.06;61.17;99299.19;4151275;28;20204;-46
2023/09/25 08:44:34;;;;;;;0.80;0.73;;;;;;;18.17;60.00;99300.81;4159113;28;20204;-46
2023/09/25 08:46:35;;;;;;;0.50;0.50;;;;;;;17.58;61.04;99302.53;4158667;28;20213;-46
2023/09/25 08:48:38;;;;;;;1.52;0.98;;;;;;;17.00;61.13;99300.19;4159324;28;20217;-47
2023/09/25 08:50:42;;;;;;;0.85;0.60;;;;;;;17.42;62.14;99303.59;4158503;28;20233;-46
2023/09/25 08:52:45;;;;;;;1.02;0.50;;;;;;;17.85;60.45;99300.31;4174859;28;20208;-46
2023/09/25 08:54:50;;;;;;;0.45;0.45;;;;;;;17.86;59.90;99313.06;4151800;28;20224;-47
2023/09/25 08:56:52;;;;;;;0.98;0.70;;;;;;;17.88;59.02;99296.97;4161059;28;20197;-48
2023/09/25 08:58:55;;;;;;;0.73;0.60;;;;;;;17.85;59.20;99303.09;4160348;28;20220;-47
2023/09/25 09:01:00;;;;;;;0.63;0.60;;;;;;;18.24;59.77;99304.16;4158730;28;20201;-48
2023/09/25 09:03:05;;;;;;;2.15;0.60;;;;;;;18.31;57.81;99293.63;4161538;28;20584;-49
2023/09/25 09:05:11;;;;;;;2.72;0.70;;;;;;;18.39;59.03;99293.88;4160748;28;20220;-49
2023/09/25 09:07:15;;;;;;;7.78;1.10;;;;;;;18.74;57.16;99290.16;4159566;28;20452;-49
2023/09/25 09:09:18;;;;;;;1.60;0.68;;;;;;;19.00;57.79;99289.75;4159370;28;20207;-47
2023/09/25 09:11:21;;;;;;;1.25;0.80;;;;;;;18.99;56.39;99290.03;4157688;28;20627;-46
2023/09/25 09:13:23;;;;;;;2.03;0.68;;;;;;;19.62;56.48;99297.41;4157823;28;20723;-47
2023/09/25 09:15:29;;;;;;;4.13;0.73;;;;;;;19.00;55.34;99283.38;4142096;28;20259;-46
2023/09/25 09:17:45;;;;;;;0.60;0.55;;;;;;;19.90;55.52;99271.63;4154370;28;20209;-51
2023/09/25 09:19:55;;;;;;;1.00;0.68;;;;;;;19.02;55.12;99279.19;4160270;28;20213;-47
2023/09/25 09:22:05;;;;;;;2.20;0.40;;;;;;;19.24;56.74;99273.28;4157924;28;20252;-47
2023/09/25 09:24:17;;;;;;;1.17;0.85;;;;;;;19.76;56.39;99281.75;4160232;28;20208;-47
2023/09/25 09:26:19;;;;;;;0.55;0.50;;;;;;;19.86;53.84;99276.91;4140907;28;20221;-46
2023/09/25 09:28:21;;;;;;;0.63;0.60;;;;;;;20.96;54.51;99277.69;4143021;28;20723;-47
2023/09/25 09:30:24;;;;;;;1.08;0.68;;;;;;;21.57;52.32;99275.69;4158197;28;20216;-46
2023/09/25 09:32:26;;;;;;;0.75;0.55;;;;;;;21.57;53.35;99272.91;4157524;28;20258;-49
2023/09/25 09:34:29;;;;;;;1.17;0.75;;;;;;;21.08;52.35;99261.38;4151285;28;20235;-48
2023/09/25 09:36:33;;;;;;;0.63;0.63;;;;;;;20.77;52.96;99266.50;4160207;28;20573;-47
2023/09/25 09:38:39;;;;;;;0.73;0.60;;;;;;;20.49;52.75;99264.63;4156234;28;20219;-51
2023/09/25 09:40:41;;;;;;;0.40;0.40;;;;;;;20.56;54.56;99264.25;4159998;28;20634;-46
2023/09/25 09:42:43;;;;;;;0.40;0.40;;;;;;;21.55;52.81;99261.22;4155979;28;20629;-46